Albion, Rhode Island
Current Conditions -  °F | °C
As of 5:15 PM on Thursday 18 Dec 2014 (Local Time) from KSFZ Reporting Station
Overcast Overcast  
Wind Chill: -1°   Ceiling: 3300
Heat Index:   Visibility: 10mi
Dew Point: -6°   Wind: 10mph
Humidity: 52%   Direction: 280°W
Pressure: 29.83"   Gusts: NA
Location:  41.95°N, 71.45°W
Report Text: KSFZ 182215Z 28009KT 10SM OVC033 03/M06 A2983 RMK AO1
Loading
Personal Weather Stations






























Interactive Weather Map New forecast layout! Learn more

10-Day Weather Forecast

Advertisements
Track Severe Weather on mobile